Time;durP1;ratioP1;P1;durP2;ratioP2;P2;SDS_P1;SDS_P2;PMS_P1;PMS_P2;Temp;Humidity;BMP_temperature;BMP_pressure;BME280_temperature;BME280_humidity;BME280_pressure;Samples;Min_cycle;Max_cycle;Signal;HPM_P1;HPM_P2
2023/09/22 00:02:00;;;;;;;249.67;106.87;;;;;;;;;;4992756;28;20936;-44
2023/09/22 00:04:26;;;;;;;249.30;106.03;;;;;;;;;;4992316;28;20416;-44
2023/09/22 00:06:53;;;;;;;249.07;106.57;;;;;;;;;;4992873;28;20413;-44
2023/09/22 00:09:19;;;;;;;250.73;109.33;;;;;;;;;;4992886;28;20893;-46
2023/09/22 00:11:45;;;;;;;248.33;105.13;;;;;;;;;;4992484;28;20523;-44
2023/09/22 00:14:11;;;;;;;250.60;108.83;;;;;;;;;;4987853;28;20420;-45
2023/09/22 00:16:37;;;;;;;254.33;110.57;;;;;;;;;;4992649;28;20412;-45
2023/09/22 00:19:05;;;;;;;252.63;109.73;;;;;;;;;;4992695;28;20441;-44
2023/09/22 00:21:34;;;;;;;249.27;104.97;;;;;;;;;;4992165;28;20558;-44
2023/09/22 00:24:00;;;;;;;249.27;106.33;;;;;;;;;;4992680;28;20397;-44
2023/09/22 00:26:26;;;;;;;250.87;107.97;;;;;;;;;;4992459;28;20829;-44
2023/09/22 00:28:52;;;;;;;247.90;105.03;;;;;;;;;;4992009;28;20401;-44
2023/09/22 00:31:18;;;;;;;252.07;109.63;;;;;;;;;;4992249;28;20512;-44
2023/09/22 00:33:44;;;;;;;254.57;115.27;;;;;;;;;;4992071;28;20607;-44
2023/09/22 00:36:10;;;;;;;251.40;109.17;;;;;;;;;;4992587;28;20404;-44
2023/09/22 00:38:36;;;;;;;249.57;106.10;;;;;;;;;;4992260;28;20401;-45
2023/09/22 00:41:02;;;;;;;251.60;109.97;;;;;;;;;;4992008;28;20408;-45
2023/09/22 00:43:29;;;;;;;248.57;110.07;;;;;;;;;;4992368;28;20412;-45
2023/09/22 00:45:55;;;;;;;248.33;106.17;;;;;;;;;;4992396;28;20421;-44
2023/09/22 00:48:27;;;;;;;247.77;105.30;;;;;;;;;;4991953;28;20504;-44
2023/09/22 00:50:55;;;;;;;253.83;112.17;;;;;;;;;;4990107;28;20404;-46
2023/09/22 00:53:21;;;;;;;250.50;108.70;;;;;;;;;;4988583;28;20508;-45
2023/09/22 00:55:51;;;;;;;247.87;107.20;;;;;;;;;;4989814;28;20766;-46
2023/09/22 00:58:17;;;;;;;248.07;105.17;;;;;;;;;;4989937;28;20427;-45
2023/09/22 01:00:47;;;;;;;260.33;115.67;;;;;;;;;;4991945;28;20764;-44
2023/09/22 01:03:13;;;;;;;246.37;103.23;;;;;;;;;;4991718;28;20431;-45
2023/09/22 01:05:39;;;;;;;248.70;106.47;;;;;;;;;;4989985;28;20423;-46
2023/09/22 01:08:05;;;;;;;251.77;108.53;;;;;;;;;;4991714;28;20798;-45
2023/09/22 01:10:38;;;;;;;256.47;108.77;;;;;;;;;;4990819;28;20454;-45
2023/09/22 01:13:04;;;;;;;250.83;105.43;;;;;;;;;;4991118;28;20567;-44
2023/09/22 01:15:33;;;;;;;251.23;106.23;;;;;;;;;;4991773;28;20416;-45
2023/09/22 01:17:59;;;;;;;248.53;102.87;;;;;;;;;;4995033;28;20458;-44
2023/09/22 01:20:25;;;;;;;252.07;103.87;;;;;;;;;;4994649;28;20498;-46
2023/09/22 01:22:51;;;;;;;251.37;104.67;;;;;;;;;;4995713;28;20991;-46
2023/09/22 01:25:17;;;;;;;248.50;101.83;;;;;;;;;;4995850;28;20412;-45
2023/09/22 01:27:43;;;;;;;251.57;106.13;;;;;;;;;;4995870;28;20462;-45
2023/09/22 01:30:09;;;;;;;249.73;103.33;;;;;;;;;;4995057;28;20419;-44
2023/09/22 01:32:37;;;;;;;249.50;102.37;;;;;;;;;;4993475;28;20474;-45
2023/09/22 01:35:04;;;;;;;246.27;100.27;;;;;;;;;;4993060;28;20909;-45
2023/09/22 01:37:33;;;;;;;246.87;101.50;;;;;;;;;;4995086;28;20401;-44
2023/09/22 01:40:00;;;;;;;252.47;106.67;;;;;;;;;;4990981;28;20486;-45
2023/09/22 01:42:26;;;;;;;248.97;102.77;;;;;;;;;;4995219;28;20438;-45
2023/09/22 01:44:52;;;;;;;247.53;100.80;;;;;;;;;;4995277;28;20423;-45
2023/09/22 01:47:18;;;;;;;250.27;103.07;;;;;;;;;;4993506;28;20891;-47
2023/09/22 01:49:44;;;;;;;248.00;103.43;;;;;;;;;;4995350;28;20414;-44
2023/09/22 01:52:09;;;;;;;249.17;102.03;;;;;;;;;;4995098;28;20824;-45
2023/09/22 01:54:35;;;;;;;248.23;103.77;;;;;;;;;;4995550;28;20400;-45
2023/09/22 01:57:01;;;;;;;251.10;105.10;;;;;;;;;;4995369;28;20408;-44
2023/09/22 01:59:27;;;;;;;245.60;99.97;;;;;;;;;;4984821;28;20535;-44
2023/09/22 02:01:53;;;;;;;248.80;103.77;;;;;;;;;;4994671;28;20432;-46
2023/09/22 02:04:19;;;;;;;249.87;105.80;;;;;;;;;;4994953;28;20423;-45
2023/09/22 02:06:45;;;;;;;249.13;103.97;;;;;;;;;;4990117;28;20507;-46
2023/09/22 02:09:11;;;;;;;249.47;105.30;;;;;;;;;;4994527;28;20412;-45
2023/09/22 02:11:37;;;;;;;246.87;101.67;;;;;;;;;;4994643;28;20430;-45
2023/09/22 02:14:03;;;;;;;247.73;102.80;;;;;;;;;;4994496;28;20429;-46
2023/09/22 02:16:29;;;;;;;248.07;101.43;;;;;;;;;;4994206;28;20424;-45
2023/09/22 02:18:56;;;;;;;248.97;104.10;;;;;;;;;;4994885;28;20450;-45
2023/09/22 02:21:22;;;;;;;246.53;100.57;;;;;;;;;;4994518;28;20530;-45
2023/09/22 02:23:48;;;;;;;249.33;104.77;;;;;;;;;;4994693;28;20497;-45
2023/09/22 02:26:14;;;;;;;248.87;104.13;;;;;;;;;;4994774;28;20418;-46
2023/09/22 02:28:40;;;;;;;247.63;99.97;;;;;;;;;;4992551;28;20499;-45
2023/09/22 02:31:06;;;;;;;251.73;107.07;;;;;;;;;;4994308;28;20451;-45
2023/09/22 02:33:32;;;;;;;247.63;106.27;;;;;;;;;;4994542;28;20466;-45
2023/09/22 02:35:59;;;;;;;247.57;103.70;;;;;;;;;;4989944;28;20414;-46
2023/09/22 02:38:26;;;;;;;249.50;105.07;;;;;;;;;;4994303;28;20408;-45
2023/09/22 02:40:51;;;;;;;252.17;107.07;;;;;;;;;;4994334;28;20427;-46
2023/09/22 02:43:17;;;;;;;247.17;104.00;;;;;;;;;;4990231;28;20804;-45
2023/09/22 02:45:43;;;;;;;244.87;101.07;;;;;;;;;;4988438;28;20764;-45
2023/09/22 02:48:10;;;;;;;249.27;104.30;;;;;;;;;;4994612;28;20772;-47
2023/09/22 02:50:37;;;;;;;251.63;104.07;;;;;;;;;;4994185;28;20440;-47
2023/09/22 02:53:03;;;;;;;249.23;103.27;;;;;;;;;;4993725;28;20467;-45
2023/09/22 02:55:29;;;;;;;249.53;104.53;;;;;;;;;;4994052;28;20416;-45
2023/09/22 02:57:55;;;;;;;246.97;101.47;;;;;;;;;;4994085;28;20417;-46
2023/09/22 03:00:22;;;;;;;245.90;98.43;;;;;;;;;;4994032;28;20419;-45
2023/09/22 03:02:48;;;;;;;245.97;100.83;;;;;;;;;;4993848;28;20529;-45
2023/09/22 03:05:16;;;;;;;246.53;105.33;;;;;;;;;;4994082;28;20439;-46
2023/09/22 03:07:42;;;;;;;246.43;101.43;;;;;;;;;;4987158;28;20407;-45
2023/09/22 03:10:10;;;;;;;247.77;103.50;;;;;;;;;;4993781;28;20415;-46
2023/09/22 03:12:36;;;;;;;244.57;99.10;;;;;;;;;;4988356;28;21001;-47
2023/09/22 03:15:03;;;;;;;247.97;101.50;;;;;;;;;;4993999;28;20451;-45
2023/09/22 03:17:29;;;;;;;249.07;106.87;;;;;;;;;;4993790;28;20436;-45
2023/09/22 03:19:58;;;;;;;243.07;100.77;;;;;;;;;;4993709;28;20925;-45
2023/09/22 03:22:25;;;;;;;243.20;100.77;;;;;;;;;;4993238;28;20463;-46
2023/09/22 03:24:51;;;;;;;244.67;104.00;;;;;;;;;;4993658;28;20415;-45
2023/09/22 03:27:17;;;;;;;245.87;105.23;;;;;;;;;;4993638;28;20416;-45
2023/09/22 03:29:43;;;;;;;246.23;102.63;;;;;;;;;;4993785;28;20959;-46
2023/09/22 03:32:09;;;;;;;244.50;103.10;;;;;;;;;;4993148;28;20474;-47
2023/09/22 03:34:36;;;;;;;241.43;101.47;;;;;;;;;;4993857;28;20495;-45
2023/09/22 03:37:08;;;;;;;247.47;107.53;;;;;;;;;;4993225;28;20445;-45
2023/09/22 03:39:34;;;;;;;242.53;99.37;;;;;;;;;;4992268;28;20508;-45
2023/09/22 03:42:00;;;;;;;243.70;102.87;;;;;;;;;;4993046;28;20431;-46
2023/09/22 03:44:26;;;;;;;243.77;101.27;;;;;;;;;;4993256;28;20435;-45
2023/09/22 03:46:52;;;;;;;241.90;100.87;;;;;;;;;;4993247;28;20557;-45
2023/09/22 03:49:18;;;;;;;248.47;108.53;;;;;;;;;;4993153;28;20423;-46
2023/09/22 03:51:45;;;;;;;250.00;108.67;;;;;;;;;;4993391;28;20428;-45
2023/09/22 03:54:11;;;;;;;243.67;101.57;;;;;;;;;;4993126;28;20518;-45
2023/09/22 03:56:37;;;;;;;243.80;102.13;;;;;;;;;;4993136;28;20415;-44
2023/09/22 03:59:05;;;;;;;243.70;105.07;;;;;;;;;;4992980;28;20498;-44
2023/09/22 04:01:32;;;;;;;244.77;101.00;;;;;;;;;;4992753;28;20427;-46
2023/09/22 04:03:58;;;;;;;243.37;99.20;;;;;;;;;;4993026;28;20479;-44
2023/09/22 04:06:24;;;;;;;245.53;101.53;;;;;;;;;;4992689;28;20424;-45
2023/09/22 04:08:51;;;;;;;242.57;99.40;;;;;;;;;;4992796;28;20442;-45
2023/09/22 04:11:17;;;;;;;240.57;98.17;;;;;;;;;;4992572;28;20504;-45
2023/09/22 04:13:44;;;;;;;243.27;99.83;;;;;;;;;;4992678;28;20475;-46
2023/09/22 04:16:10;;;;;;;245.27;102.70;;;;;;;;;;4992582;28;20920;-45
2023/09/22 04:18:36;;;;;;;242.07;97.37;;;;;;;;;;4992643;28;20420;-46
2023/09/22 04:21:04;;;;;;;248.47;100.60;;;;;;;;;;4992267;28;20397;-46
2023/09/22 04:23:31;;;;;;;244.17;98.27;;;;;;;;;;4992687;28;20437;-46
2023/09/22 04:25:59;;;;;;;241.47;97.83;;;;;;;;;;4992629;28;20491;-45
2023/09/22 04:28:25;;;;;;;243.30;100.37;;;;;;;;;;4992610;28;20420;-44
2023/09/22 04:30:54;;;;;;;243.83;100.67;;;;;;;;;;4992602;28;20475;-46
2023/09/22 04:33:20;;;;;;;241.13;98.23;;;;;;;;;;4992789;28;20460;-46
2023/09/22 04:35:48;;;;;;;243.27;100.47;;;;;;;;;;4992456;28;20403;-44
2023/09/22 04:38:14;;;;;;;244.37;100.63;;;;;;;;;;4992175;28;20796;-45
2023/09/22 04:40:40;;;;;;;247.77;100.57;;;;;;;;;;4992261;28;20487;-45
2023/09/22 04:43:11;;;;;;;242.30;99.43;;;;;;;;;;4992403;28;20420;-45
2023/09/22 04:45:40;;;;;;;247.20;102.07;;;;;;;;;;4991537;28;20475;-45
2023/09/22 04:48:08;;;;;;;242.93;98.87;;;;;;;;;;4992125;28;20516;-46
2023/09/22 04:50:34;;;;;;;241.93;96.37;;;;;;;;;;4985815;28;20490;-45
2023/09/22 04:53:00;;;;;;;240.77;94.73;;;;;;;;;;4991977;28;20498;-45
2023/09/22 04:55:29;;;;;;;242.23;104.13;;;;;;;;;;4992237;28;20412;-45
2023/09/22 04:57:56;;;;;;;241.37;96.97;;;;;;;;;;4992252;28;20421;-47
2023/09/22 05:00:24;;;;;;;246.67;109.20;;;;;;;;;;4992017;28;20412;-45
2023/09/22 05:02:52;;;;;;;242.40;99.17;;;;;;;;;;4991940;28;20800;-45
2023/09/22 05:05:18;;;;;;;245.20;100.07;;;;;;;;;;4992328;28;20473;-44
2023/09/22 05:07:45;;;;;;;246.63;105.60;;;;;;;;;;4992186;28;20450;-45
2023/09/22 05:10:11;;;;;;;241.97;99.50;;;;;;;;;;4991966;28;20506;-45
2023/09/22 05:12:37;;;;;;;243.57;100.30;;;;;;;;;;4991843;28;20464;-45
2023/09/22 05:15:04;;;;;;;243.83;102.67;;;;;;;;;;4991940;28;20423;-44
2023/09/22 05:17:30;;;;;;;247.83;103.80;;;;;;;;;;4992457;28;20767;-45
2023/09/22 05:19:58;;;;;;;243.97;103.53;;;;;;;;;;4991858;28;20441;-46
2023/09/22 05:22:24;;;;;;;239.37;96.83;;;;;;;;;;4991741;28;20474;-45
2023/09/22 05:24:50;;;;;;;242.87;97.17;;;;;;;;;;4991994;28;20478;-45
2023/09/22 05:27:16;;;;;;;241.60;98.97;;;;;;;;;;4991934;28;20935;-45
2023/09/22 05:29:42;;;;;;;244.27;105.53;;;;;;;;;;4991790;28;20415;-45
2023/09/22 05:32:09;;;;;;;244.03;101.03;;;;;;;;;;4991741;28;20475;-45
2023/09/22 05:34:35;;;;;;;243.27;102.17;;;;;;;;;;4984103;28;20409;-46
2023/09/22 05:37:01;;;;;;;245.17;101.17;;;;;;;;;;4991769;28;20506;-45
2023/09/22 05:39:27;;;;;;;241.97;100.97;;;;;;;;;;4991927;28;20502;-45
2023/09/22 05:41:53;;;;;;;242.10;100.93;;;;;;;;;;4991687;28;20424;-45
2023/09/22 05:44:19;;;;;;;243.17;105.00;;;;;;;;;;4991574;28;20926;-46
2023/09/22 05:46:45;;;;;;;241.27;100.93;;;;;;;;;;4991625;28;20427;-47
2023/09/22 05:49:14;;;;;;;242.67;102.93;;;;;;;;;;4991591;28;20831;-45
2023/09/22 05:51:43;;;;;;;240.50;99.03;;;;;;;;;;4991186;28;20434;-45
2023/09/22 05:54:09;;;;;;;239.93;98.37;;;;;;;;;;4991576;28;20816;-45
2023/09/22 05:56:35;;;;;;;240.67;98.47;;;;;;;;;;4991664;28;20418;-45
2023/09/22 05:59:03;;;;;;;240.83;101.93;;;;;;;;;;4990191;28;20441;-46
2023/09/22 06:01:30;;;;;;;237.97;99.60;;;;;;;;;;4991170;28;20450;-44
2023/09/22 06:03:58;;;;;;;236.93;97.17;;;;;;;;;;4994843;28;20412;-45
2023/09/22 06:06:24;;;;;;;239.77;99.43;;;;;;;;;;4995134;28;20904;-45
2023/09/22 06:08:50;;;;;;;238.60;99.40;;;;;;;;;;4995175;28;20408;-45
2023/09/22 06:11:17;;;;;;;240.67;100.93;;;;;;;;;;4994860;28;20428;-46
2023/09/22 06:13:43;;;;;;;239.43;102.97;;;;;;;;;;4993487;28;20495;-45
2023/09/22 06:16:09;;;;;;;237.53;94.87;;;;;;;;;;4991774;28;20526;-46
2023/09/22 06:18:37;;;;;;;237.37;97.60;;;;;;;;;;4990280;28;20412;-45
2023/09/22 06:21:05;;;;;;;236.53;94.33;;;;;;;;;;4989121;28;20416;-45
2023/09/22 06:23:31;;;;;;;241.87;106.67;;;;;;;;;;4991829;28;20409;-45
2023/09/22 06:26:01;;;;;;;236.43;94.77;;;;;;;;;;4990022;28;20822;-44
2023/09/22 06:28:27;;;;;;;239.30;95.40;;;;;;;;;;4993743;28;20947;-47
2023/09/22 06:30:53;;;;;;;241.20;97.67;;;;;;;;;;4992315;28;20503;-46
2023/09/22 06:33:19;;;;;;;238.63;95.13;;;;;;;;;;4994509;28;20828;-45
2023/09/22 06:35:46;;;;;;;238.57;97.37;;;;;;;;;;4994585;28;20922;-45
2023/09/22 06:38:12;;;;;;;242.63;99.63;;;;;;;;;;4994380;28;20466;-45
2023/09/22 06:40:38;;;;;;;243.07;98.30;;;;;;;;;;4994338;28;20823;-45
2023/09/22 06:43:04;;;;;;;241.60;99.17;;;;;;;;;;4994256;28;20432;-47
2023/09/22 06:45:33;;;;;;;241.27;100.53;;;;;;;;;;4994429;28;20485;-46
2023/09/22 06:48:09;;;;;;;240.80;98.63;;;;;;;;;;4994360;28;20904;-46
2023/09/22 06:50:38;;;;;;;242.17;97.03;;;;;;;;;;4992596;28;20430;-45
2023/09/22 06:53:05;;;;;;;243.43;98.67;;;;;;;;;;4993732;28;20468;-45
2023/09/22 06:55:31;;;;;;;241.50;96.27;;;;;;;;;;4994341;28;20408;-46
2023/09/22 06:58:00;;;;;;;242.93;100.97;;;;;;;;;;4994380;28;20440;-44
2023/09/22 07:00:28;;;;;;;240.83;98.47;;;;;;;;;;4993919;28;20408;-47
2023/09/22 07:02:54;;;;;;;241.40;94.87;;;;;;;;;;4994005;28;20428;-44
2023/09/22 07:05:22;;;;;;;245.80;98.10;;;;;;;;;;4993965;28;20407;-46
2023/09/22 07:07:50;;;;;;;246.90;99.80;;;;;;;;;;4994154;28;20408;-46
2023/09/22 07:10:16;;;;;;;249.47;100.97;;;;;;;;;;4992629;28;20543;-45
2023/09/22 07:12:42;;;;;;;247.27;101.03;;;;;;;;;;4990649;28;20910;-45
2023/09/22 07:15:08;;;;;;;248.67;105.03;;;;;;;;;;4989403;28;20417;-45
2023/09/22 07:17:34;;;;;;;246.97;100.60;;;;;;;;;;4979819;28;20421;-45
2023/09/22 07:20:01;;;;;;;253.67;109.07;;;;;;;;;;4993672;28;20499;-45
2023/09/22 07:22:30;;;;;;;250.67;106.57;;;;;;;;;;4992258;28;20720;-45
2023/09/22 07:24:56;;;;;;;251.23;106.13;;;;;;;;;;4992606;28;20424;-45
2023/09/22 07:27:23;;;;;;;251.10;104.07;;;;;;;;;;4992237;28;20428;-46
2023/09/22 07:29:50;;;;;;;250.67;105.80;;;;;;;;;;4980254;28;20460;-46
2023/09/22 07:32:16;;;;;;;249.03;102.63;;;;;;;;;;4990682;28;20472;-45
2023/09/22 07:34:42;;;;;;;247.93;99.30;;;;;;;;;;4993411;28;20403;-45
2023/09/22 07:37:11;;;;;;;248.93;102.77;;;;;;;;;;4990383;28;20413;-45
2023/09/22 07:39:37;;;;;;;245.37;101.37;;;;;;;;;;4985597;28;20415;-46
2023/09/22 07:42:03;;;;;;;250.60;105.60;;;;;;;;;;4993128;28;20490;-47
2023/09/22 07:44:30;;;;;;;248.40;102.63;;;;;;;;;;4993033;28;20438;-46
2023/09/22 07:46:58;;;;;;;249.13;103.67;;;;;;;;;;4993241;28;20920;-45
2023/09/22 07:49:25;;;;;;;248.73;99.67;;;;;;;;;;4993413;28;20451;-46
2023/09/22 07:51:51;;;;;;;248.47;100.83;;;;;;;;;;4992970;28;20433;-46
2023/09/22 07:54:18;;;;;;;248.43;100.93;;;;;;;;;;4992979;28;20431;-45
2023/09/22 07:56:46;;;;;;;249.27;103.07;;;;;;;;;;4993016;28;20409;-45
2023/09/22 07:59:13;;;;;;;248.17;102.10;;;;;;;;;;4992975;28;20441;-45
2023/09/22 08:01:42;;;;;;;252.17;107.33;;;;;;;;;;4992564;28;20446;-45
2023/09/22 08:04:09;;;;;;;249.57;104.13;;;;;;;;;;4993069;28;20420;-45
2023/09/22 08:06:34;;;;;;;250.37;103.27;;;;;;;;;;4985019;28;20430;-45
2023/09/22 08:09:01;;;;;;;249.77;105.40;;;;;;;;;;4993054;28;20419;-46
2023/09/22 08:11:27;;;;;;;246.27;100.77;;;;;;;;;;4992455;28;20480;-46
2023/09/22 08:13:52;;;;;;;248.87;106.17;;;;;;;;;;4992739;28;20492;-46
2023/09/22 08:16:18;;;;;;;255.47;109.63;;;;;;;;;;4992690;28;20403;-46
2023/09/22 08:18:44;;;;;;;248.70;102.53;;;;;;;;;;4991722;28;20417;-46
2023/09/22 08:21:11;;;;;;;247.77;101.80;;;;;;;;;;4992502;28;20413;-47
2023/09/22 08:23:37;;;;;;;249.60;102.87;;;;;;;;;;4992503;28;20499;-48
2023/09/22 08:26:05;;;;;;;247.77;102.43;;;;;;;;;;4992165;28;20421;-46
2023/09/22 08:28:32;;;;;;;250.83;109.73;;;;;;;;;;4992546;28;20413;-45
2023/09/22 08:30:58;;;;;;;250.60;106.33;;;;;;;;;;4992064;28;20419;-46
2023/09/22 08:33:24;;;;;;;249.70;103.93;;;;;;;;;;4992456;28;20486;-46
2023/09/22 08:35:50;;;;;;;249.57;107.83;;;;;;;;;;4992996;28;20410;-46
2023/09/22 08:38:17;;;;;;;249.47;103.47;;;;;;;;;;4992327;28;20498;-46
2023/09/22 08:40:46;;;;;;;255.13;110.53;;;;;;;;;;4992178;28;20447;-45
2023/09/22 08:43:12;;;;;;;250.67;107.83;;;;;;;;;;4992179;28;20454;-45
2023/09/22 08:45:39;;;;;;;250.40;108.27;;;;;;;;;;4992346;28;20425;-46
2023/09/22 08:48:07;;;;;;;252.63;111.10;;;;;;;;;;4992394;28;20408;-46
2023/09/22 08:50:33;;;;;;;251.07;107.47;;;;;;;;;;4991980;28;20431;-47
2023/09/22 08:52:59;;;;;;;248.87;105.23;;;;;;;;;;4992264;28;20836;-46
2023/09/22 08:55:26;;;;;;;249.47;108.80;;;;;;;;;;4991186;28;20412;-45
2023/09/22 08:57:53;;;;;;;250.80;114.73;;;;;;;;;;4992425;28;20788;-46
2023/09/22 09:00:20;;;;;;;251.87;115.43;;;;;;;;;;4990869;28;20440;-46
2023/09/22 09:02:50;;;;;;;253.70;114.97;;;;;;;;;;4992050;28;20912;-47
2023/09/22 09:05:20;;;;;;;253.43;120.20;;;;;;;;;;4990116;28;20430;-48
2023/09/22 09:07:47;;;;;;;248.43;108.47;;;;;;;;;;4992271;28;20420;-46
2023/09/22 09:10:24;;;;;;;251.67;112.90;;;;;;;;;;4992099;28;20420;-45
2023/09/22 09:12:50;;;;;;;252.27;114.50;;;;;;;;;;4990402;28;20484;-48
2023/09/22 09:15:16;;;;;;;252.50;115.73;;;;;;;;;;4982846;28;20975;-46
2023/09/22 09:17:42;;;;;;;250.20;114.33;;;;;;;;;;4984878;28;20815;-45
2023/09/22 09:20:08;;;;;;;249.83;108.73;;;;;;;;;;4976890;28;20466;-46
2023/09/22 09:22:40;;;;;;;251.77;109.43;;;;;;;;;;4981112;28;20447;-46
2023/09/22 09:25:09;;;;;;;248.33;107.93;;;;;;;;;;4988536;28;20411;-46
2023/09/22 09:27:35;;;;;;;252.77;110.40;;;;;;;;;;4991033;28;20439;-48
2023/09/22 09:30:11;;;;;;;249.77;109.83;;;;;;;;;;4990929;28;20411;-47
2023/09/22 09:32:39;;;;;;;251.50;109.97;;;;;;;;;;4987065;28;20512;-46
2023/09/22 09:35:05;;;;;;;250.67;110.23;;;;;;;;;;4992116;28;20465;-47
2023/09/22 09:37:31;;;;;;;249.23;104.87;;;;;;;;;;4992984;28;20439;-45
2023/09/22 09:39:58;;;;;;;247.67;103.50;;;;;;;;;;4989623;28;20453;-46
2023/09/22 09:42:24;;;;;;;249.07;107.93;;;;;;;;;;4993981;28;20433;-45
2023/09/22 09:44:50;;;;;;;246.93;104.67;;;;;;;;;;4995614;28;20425;-45
2023/09/22 09:47:22;;;;;;;249.33;107.03;;;;;;;;;;4995626;28;20436;-47
2023/09/22 09:49:50;;;;;;;246.37;102.03;;;;;;;;;;4995600;28;20916;-46
2023/09/22 09:52:17;;;;;;;245.57;101.43;;;;;;;;;;4995199;28;20465;-45
2023/09/22 09:54:48;;;;;;;247.67;104.90;;;;;;;;;;4995670;28;20794;-47
2023/09/22 09:57:14;;;;;;;243.97;98.83;;;;;;;;;;4994241;28;20414;-45
2023/09/22 09:59:41;;;;;;;247.67;103.80;;;;;;;;;;4995385;28;20482;-46
2023/09/22 10:02:08;;;;;;;244.87;100.37;;;;;;;;;;4995021;28;20430;-47
2023/09/22 10:04:35;;;;;;;247.77;104.80;;;;;;;;;;4986179;28;20405;-45
2023/09/22 10:07:02;;;;;;;245.73;99.63;;;;;;;;;;4990961;28;20917;-46
2023/09/22 10:09:29;;;;;;;245.07;99.27;;;;;;;;;;4987592;28;20972;-46
2023/09/22 10:11:55;;;;;;;246.20;101.27;;;;;;;;;;4993665;28;20434;-46
2023/09/22 10:14:40;;;;;;;244.50;101.47;;;;;;;;;;4995199;28;20572;-46
2023/09/22 10:17:19;;;;;;;245.93;99.93;;;;;;;;;;4995490;28;20412;-46
2023/09/22 10:19:46;;;;;;;247.60;100.87;;;;;;;;;;4994985;28;20415;-47
2023/09/22 10:22:12;;;;;;;247.17;102.13;;;;;;;;;;4987059;28;20433;-46
2023/09/22 10:24:38;;;;;;;245.07;98.20;;;;;;;;;;4980436;28;20437;-47
2023/09/22 10:27:14;;;;;;;247.87;103.13;;;;;;;;;;4993325;28;20406;-47
2023/09/22 10:29:45;;;;;;;245.93;101.77;;;;;;;;;;4975556;28;20397;-46
2023/09/22 10:32:26;;;;;;;248.87;103.90;;;;;;;;;;4994433;28;20506;-46
2023/09/22 10:34:55;;;;;;;247.23;102.67;;;;;;;;;;4994911;28;20779;-47
2023/09/22 10:37:21;;;;;;;245.57;103.13;;;;;;;;;;4994624;28;20399;-46
2023/09/22 10:39:53;;;;;;;247.50;104.70;;;;;;;;;;4994605;28;20818;-46
2023/09/22 10:42:22;;;;;;;246.87;105.03;;;;;;;;;;4982451;28;20514;-46
2023/09/22 10:45:05;;;;;;;248.47;106.13;;;;;;;;;;4984253;28;20428;-46
2023/09/22 10:47:49;;;;;;;246.07;100.57;;;;;;;;;;4985902;28;20505;-47
2023/09/22 10:50:31;;;;;;;244.43;98.77;;;;;;;;;;4983172;28;20512;-47
2023/09/22 10:52:58;;;;;;;244.57;96.20;;;;;;;;;;4986754;28;20982;-46
2023/09/22 10:55:24;;;;;;;247.87;98.53;;;;;;;;;;4979395;28;20418;-47
2023/09/22 10:57:50;;;;;;;246.63;102.20;;;;;;;;;;4992870;28;20402;-47
2023/09/22 11:00:18;;;;;;;249.23;101.60;;;;;;;;;;4974624;28;20397;-46
2023/09/22 11:02:44;;;;;;;245.53;98.97;;;;;;;;;;4992997;28;20478;-46
2023/09/22 11:05:13;;;;;;;243.83;95.57;;;;;;;;;;4994183;28;20497;-46
2023/09/22 11:07:42;;;;;;;246.63;99.23;;;;;;;;;;4981168;28;20423;-47
2023/09/22 11:10:08;;;;;;;243.40;94.80;;;;;;;;;;4984943;28;20414;-46
2023/09/22 11:12:34;;;;;;;242.77;96.00;;;;;;;;;;4985923;28;20917;-46
2023/09/22 11:15:03;;;;;;;243.57;95.67;;;;;;;;;;4994090;28;20417;-46
2023/09/22 11:17:41;;;;;;;244.10;98.57;;;;;;;;;;4993650;28;20415;-45
2023/09/22 11:20:12;;;;;;;247.37;99.73;;;;;;;;;;4993164;28;20414;-45
2023/09/22 11:22:38;;;;;;;244.37;100.87;;;;;;;;;;4993742;28;20439;-46
2023/09/22 11:25:05;;;;;;;244.60;100.17;;;;;;;;;;4991514;28;20907;-47
2023/09/22 11:27:31;;;;;;;252.23;113.30;;;;;;;;;;4989886;28;20423;-46
2023/09/22 11:30:13;;;;;;;246.97;100.77;;;;;;;;;;4988057;28;20829;-47
2023/09/22 11:32:39;;;;;;;246.13;100.03;;;;;;;;;;4986626;28;20479;-46
2023/09/22 11:35:05;;;;;;;246.50;103.93;;;;;;;;;;4993071;28;20883;-48
2023/09/22 11:37:31;;;;;;;251.53;106.37;;;;;;;;;;4991166;28;20415;-48
2023/09/22 11:39:57;;;;;;;251.20;110.83;;;;;;;;;;4993437;28;20454;-46
2023/09/22 11:42:23;;;;;;;253.13;113.60;;;;;;;;;;4993042;28;20431;-46
2023/09/22 11:44:57;;;;;;;250.60;113.27;;;;;;;;;;4993272;28;20443;-48
2023/09/22 11:47:23;;;;;;;254.37;120.70;;;;;;;;;;4993233;28;21009;-47
2023/09/22 11:49:49;;;;;;;254.17;119.17;;;;;;;;;;4993189;28;20514;-47
2023/09/22 11:52:16;;;;;;;250.73;116.13;;;;;;;;;;4992945;28;20947;-47
2023/09/22 11:54:43;;;;;;;253.23;120.00;;;;;;;;;;4993046;28;21051;-46
2023/09/22 11:57:09;;;;;;;251.07;119.10;;;;;;;;;;4993088;28;20543;-45
2023/09/22 11:59:35;;;;;;;252.33;122.33;;;;;;;;;;4992352;28;20783;-47
2023/09/22 12:02:01;;;;;;;253.07;121.80;;;;;;;;;;4992631;28;20419;-48
2023/09/22 12:04:29;;;;;;;254.80;124.80;;;;;;;;;;4992455;28;20422;-46
2023/09/22 12:06:55;;;;;;;253.63;123.53;;;;;;;;;;4990835;28;20471;-47
2023/09/22 12:09:21;;;;;;;254.30;126.00;;;;;;;;;;4989031;28;20463;-47
2023/09/22 12:11:48;;;;;;;249.87;118.43;;;;;;;;;;4987589;28;20465;-48
2023/09/22 12:14:14;;;;;;;250.03;120.80;;;;;;;;;;4985733;28;20511;-46
2023/09/22 12:16:40;;;;;;;251.53;122.13;;;;;;;;;;4992943;28;20412;-47
2023/09/22 12:19:06;;;;;;;253.87;123.03;;;;;;;;;;4992962;28;20411;-48
2023/09/22 12:21:32;;;;;;;253.60;123.97;;;;;;;;;;4992482;28;20507;-46
2023/09/22 12:23:58;;;;;;;248.93;114.47;;;;;;;;;;4992961;28;20931;-47
2023/09/22 12:26:25;;;;;;;248.47;114.87;;;;;;;;;;4992677;28;20412;-47
2023/09/22 12:28:51;;;;;;;249.50;114.57;;;;;;;;;;4992407;28;20416;-46
2023/09/22 12:31:18;;;;;;;252.20;120.30;;;;;;;;;;4991767;28;20436;-46
2023/09/22 12:33:45;;;;;;;251.87;118.97;;;;;;;;;;4990357;28;20499;-47
2023/09/22 12:36:14;;;;;;;252.23;122.90;;;;;;;;;;4988734;28;20901;-48
2023/09/22 12:38:41;;;;;;;252.37;121.23;;;;;;;;;;4992391;28;20407;-47
2023/09/22 12:41:07;;;;;;;255.23;125.67;;;;;;;;;;4992097;28;20899;-46
2023/09/22 12:43:33;;;;;;;256.10;130.57;;;;;;;;;;4992205;28;20423;-47
2023/09/22 12:45:59;;;;;;;253.70;124.37;;;;;;;;;;4992169;28;20435;-48
2023/09/22 12:48:25;;;;;;;256.03;131.10;;;;;;;;;;4990546;28;20773;-46
2023/09/22 12:50:57;;;;;;;253.07;129.33;;;;;;;;;;4992015;28;20479;-48
2023/09/22 12:53:27;;;;;;;255.53;133.37;;;;;;;;;;4992043;28;20466;-47
2023/09/22 12:55:57;;;;;;;256.50;134.30;;;;;;;;;;4987367;28;20409;-48
2023/09/22 12:58:27;;;;;;;255.40;132.57;;;;;;;;;;4990759;28;20404;-47
2023/09/22 13:00:53;;;;;;;251.57;129.13;;;;;;;;;;4991967;28;20432;-47
2023/09/22 13:03:19;;;;;;;250.50;126.93;;;;;;;;;;4990382;28;20412;-47
2023/09/22 13:05:46;;;;;;;251.30;123.43;;;;;;;;;;4988605;28;20470;-46
2023/09/22 13:08:12;;;;;;;252.07;127.77;;;;;;;;;;4986762;28;20446;-48
2023/09/22 13:10:42;;;;;;;254.57;127.87;;;;;;;;;;4985221;28;20412;-46
2023/09/22 13:13:08;;;;;;;250.03;125.00;;;;;;;;;;4996017;28;20490;-46
2023/09/22 13:15:35;;;;;;;248.83;122.77;;;;;;;;;;4986210;28;20927;-47
2023/09/22 13:18:02;;;;;;;254.13;127.33;;;;;;;;;;4993457;28;20400;-47
2023/09/22 13:20:32;;;;;;;254.57;128.53;;;;;;;;;;4995136;28;20466;-46
2023/09/22 13:22:59;;;;;;;250.77;123.70;;;;;;;;;;4991123;28;20432;-47
2023/09/22 13:25:25;;;;;;;250.30;124.73;;;;;;;;;;4996053;28;20501;-48
2023/09/22 13:27:51;;;;;;;249.17;124.00;;;;;;;;;;4995816;28;20935;-46
2023/09/22 13:30:17;;;;;;;248.70;124.50;;;;;;;;;;4993832;28;20415;-47
2023/09/22 13:32:43;;;;;;;252.27;127.30;;;;;;;;;;4992053;28;20453;-47
2023/09/22 13:35:09;;;;;;;251.97;124.73;;;;;;;;;;4990737;28;20913;-46
2023/09/22 13:37:35;;;;;;;253.67;128.63;;;;;;;;;;4995477;28;20415;-46
2023/09/22 13:40:01;;;;;;;249.80;126.10;;;;;;;;;;4995988;28;20400;-46
2023/09/22 13:42:27;;;;;;;252.17;125.90;;;;;;;;;;4995294;28;20527;-47
2023/09/22 13:44:53;;;;;;;249.77;119.17;;;;;;;;;;4995620;28;20427;-48
2023/09/22 13:47:19;;;;;;;250.40;119.07;;;;;;;;;;4995639;28;20419;-47
2023/09/22 13:49:45;;;;;;;250.13;118.30;;;;;;;;;;4995481;28;20916;-47
2023/09/22 13:52:11;;;;;;;250.80;119.60;;;;;;;;;;4995018;28;20798;-46
2023/09/22 13:54:40;;;;;;;251.33;119.70;;;;;;;;;;4995529;28;20884;-46